createdAt,value
2023-01-23T00:12:08.825Z,974.94
2023-01-23T00:27:10.780Z,975.05
2023-01-23T00:42:12.717Z,975.24
2023-01-23T00:57:14.644Z,975.5
2023-01-23T01:12:16.582Z,975.67
2023-01-23T01:27:18.501Z,975.83
2023-01-23T01:42:20.526Z,975.91
2023-01-23T01:57:22.458Z,976.01
2023-01-23T02:12:24.519Z,976.29
2023-01-23T02:27:26.426Z,976.56
2023-01-23T02:42:28.346Z,976.61
2023-01-23T02:57:30.297Z,976.61
2023-01-23T03:12:32.487Z,976.69
2023-01-23T03:27:34.423Z,976.85
2023-01-23T03:42:36.307Z,976.79
2023-01-23T03:57:38.285Z,976.67
2023-01-23T04:12:40.243Z,976.85
2023-01-23T04:27:42.145Z,976.9
2023-01-23T04:42:44.083Z,977.31
2023-01-23T04:57:46.036Z,977.26
2023-01-23T05:12:47.948Z,977.34
2023-01-23T05:27:49.955Z,977.48
2023-01-23T05:42:51.889Z,977.91
2023-01-23T05:57:53.782Z,978.26
2023-01-23T06:12:55.725Z,978.22
2023-01-23T06:27:57.665Z,977.89
2023-01-23T06:42:59.561Z,977.95
2023-01-23T06:58:01.446Z,978.43
2023-01-23T07:13:03.475Z,978.33
2023-01-23T07:28:05.472Z,978.23
2023-01-23T07:43:07.422Z,978.4
2023-01-23T07:58:09.326Z,978.25
2023-01-23T08:13:11.226Z,978.21
2023-01-23T08:28:13.144Z,978.3
2023-01-23T08:43:15.134Z,978.39
2023-01-23T08:58:17.054Z,978.33
2023-01-23T09:13:19.048Z,978.22
2023-01-23T09:28:20.944Z,978.08
2023-01-23T09:43:22.922Z,978.04
2023-01-23T09:58:24.899Z,978.01
2023-01-23T10:13:26.847Z,977.76
2023-01-23T10:28:28.832Z,977.69
2023-01-23T10:43:30.760Z,977.59
2023-01-23T10:58:32.714Z,977.68
2023-01-23T11:13:34.632Z,977.76
2023-01-23T11:28:36.592Z,977.77
2023-01-23T11:43:38.515Z,977.66
2023-01-23T11:58:49.429Z,977.2
2023-01-23T12:13:52.142Z,977.18
2023-01-23T12:28:54.208Z,976.91
2023-01-23T12:43:56.140Z,976.82
2023-01-23T12:58:58.103Z,976.83
2023-01-23T13:14:00.936Z,976.94
2023-01-23T13:29:04.101Z,976.7
2023-01-23T13:44:06.121Z,976.7
2023-01-23T14:31:25.926Z,976.94
2023-01-23T14:46:28.086Z,977.22
2023-01-23T15:01:30.089Z,976.5
2023-01-23T15:16:32.117Z,976.68
2023-01-23T15:31:34.272Z,977.43
2023-01-23T15:46:36.275Z,977.43
2023-01-23T16:01:38.268Z,977.36
2023-01-23T16:16:40.467Z,977.51
2023-01-23T16:31:42.635Z,977.63
2023-01-23T16:46:44.725Z,977.68
2023-01-23T17:01:46.732Z,977.36
2023-01-23T17:16:48.794Z,977.55
2023-01-23T17:31:50.995Z,977.55
2023-01-23T17:46:53.103Z,977.41
2023-01-23T18:01:55.104Z,976.97
2023-01-23T18:16:57.036Z,976.79
2023-01-23T18:31:59.087Z,976.58
2023-01-23T18:47:01.129Z,976.34
2023-01-23T19:02:03.180Z,976.26
2023-01-23T19:17:05.154Z,976.2
2023-01-23T19:32:07.354Z,975.97
2023-01-23T19:47:09.312Z,975.82
2023-01-23T20:02:11.354Z,975.76
2023-01-23T20:17:13.490Z,975.6
2023-01-23T20:32:15.584Z,975.36
2023-01-23T20:47:17.526Z,975.47
2023-01-23T21:02:19.435Z,975.52
2023-01-23T21:17:21.396Z,975.81
2023-01-23T21:32:23.310Z,975.99
2023-01-23T21:47:25.252Z,975.99
2023-01-23T22:02:27.288Z,975.95
2023-01-23T22:17:29.274Z,976.08
2023-01-23T22:32:31.168Z,976.21
2023-01-23T22:47:33.097Z,976.13
2023-01-23T23:02:35.054Z,976.24
2023-01-23T23:17:37.054Z,976.33
2023-01-23T23:32:39.005Z,976.63
2023-01-23T23:47:40.903Z,976.57
